Whidbey Island Naval Air Station /Ault Field/ Airport
KNUW : now visible

Airfield :











YOU CAN JOIN US ON...

 
LOGIN :

Register | Disclaimer

   EN    FR    IT 

 









Legend :    VFR   Marginal VFR   IFR   Intensive IFR   Very Intensive IFR
Visi :
Ceiling :
>= 8 km
>= 3000ft
5 to 8 km
1000 to 3000 ft
1500m to 5 km
500 to 1000 ft
800 to 1500m
200 to 500 ft
< 800m
< 200 ft
Symbols :   Thunderstorms  Fog  Heavy snow  Heavy precipitations  Wind > 20 kt






- Airport Elevation : 47 ft


KNUW - Whidbey Island Naval Air Station /Ault Field/

CURRENT METAR :
  • 090653Z 18004KT 10SM SCT250 14/12 A2997 RMK SLP148 T01390117

EXPIRED METARs :
  • 090553Z 00000KT 10SM FEW250 14/12 A2996 RMK SLP145 T01440117 10228 20139 51012

TAF TAF KNUW
Valid from the 09 at 07:00 until the 10 at 07:00 UTC


0907/1007 VRB06KT 9999 SCT150 BKN250 QNH2991INS
FM091200 VRB06KT 9999 SCT010 SCT120 BKN140 BKN250 541204 QNH2993INS
TEMPO 0912/0918 9000 BR BKN005 BKN012 OVC140
FM091800 VRB06KT 9999 FEW010 BKN120 BKN250 541204 QNH2987INS
FM100300 VRB06KT 9999 VCSH FEW010 BKN120 BKN250 541204 QNH2988INS
TEMPO 1003/1007 6000 -RA BR BKN005 OVC012 T13/0912Z T22/0922Z FS30190
KZSE FIR / North America



MET'MAP, your aeronautical weather chart ! - Copyright ORBIFLY December 2007 - Disclaimer

ORBIFLY MET'MAP TEAM :

Programming & Development : Alexandra Zaïnal
Original concept : Baudouin d'Aumeries
Technical & hardware support : Manuel Goepfert
Assistance : Marc-Olivier Méhu




SOURCES & CREDITS :

   NOAA       Earth
Advisory